Time;durP1;ratioP1;P1;durP2;ratioP2;P2;SDS_P1;SDS_P2;PMS_P1;PMS_P2;Temp;Humidity;BMP_temperature;BMP_pressure;BME280_temperature;BME280_humidity;BME280_pressure;Samples;Min_cycle;Max_cycle;Signal;HPM_P1;HPM_P2
2023/02/12 00:01:41;;;;;;;77.93;40.20;;;2.00;99.90;;;;;;4996193;28;20092;-79
2023/02/12 00:04:07;;;;;;;75.70;38.58;;;2.00;99.90;;;;;;5014543;28;20488;-79
2023/02/12 00:06:33;;;;;;;116.45;58.03;;;2.00;99.90;;;;;;5015372;28;20029;-79
2023/02/12 00:08:59;;;;;;;52.72;24.95;;;2.00;99.90;;;;;;5015527;28;20026;-79
2023/02/12 00:11:27;;;;;;;59.63;29.27;;;2.00;99.90;;;;;;4997674;28;20018;-79
2023/02/12 00:13:54;;;;;;;86.97;45.72;;;2.00;99.90;;;;;;4997465;28;20046;-79
2023/02/12 00:16:22;;;;;;;57.95;27.30;;;2.00;99.90;;;;;;4997996;28;20508;-79
2023/02/12 00:18:51;;;;;;;59.10;25.42;;;2.00;99.90;;;;;;5015397;28;20034;-78
2023/02/12 00:21:16;;;;;;;45.38;21.05;;;2.00;99.90;;;;;;4997800;28;20476;-78
2023/02/12 00:23:42;;;;;;;48.80;22.77;;;2.00;99.90;;;;;;4997534;28;20101;-79
2023/02/12 00:26:14;;;;;;;37.28;19.92;;;2.00;99.90;;;;;;4997691;28;20076;-79
2023/02/12 00:28:40;;;;;;;60.35;25.73;;;2.00;99.90;;;;;;5015091;28;20105;-79
2023/02/12 00:31:15;;;;;;;66.55;29.05;;;2.00;99.90;;;;;;5014810;28;20049;-79
2023/02/12 00:33:41;;;;;;;70.47;35.15;;;2.00;99.90;;;;;;5015242;28;20026;-79
2023/02/12 00:36:09;;;;;;;77.82;44.08;;;2.00;99.90;;;;;;5014632;28;20042;-79
2023/02/12 00:38:34;;;;;;;68.38;35.42;;;2.00;99.90;;;;;;5014736;28;20045;-79
2023/02/12 00:41:00;;;;;;;78.43;40.63;;;2.00;99.90;;;;;;5014095;28;20029;-79
2023/02/12 00:43:26;;;;;;;105.40;54.05;;;2.00;99.90;;;;;;4997484;28;20033;-79
2023/02/12 00:45:52;;;;;;;65.00;34.10;;;2.00;99.90;;;;;;4997289;28;20117;-79
2023/02/12 00:48:17;;;;;;;48.70;25.33;;;2.10;99.90;;;;;;5014657;28;20029;-79
2023/02/12 00:50:45;;;;;;;66.70;31.55;;;2.00;99.90;;;;;;5014533;28;20092;-79
2023/02/12 00:53:10;;;;;;;58.67;27.98;;;2.00;99.90;;;;;;4996954;28;20499;-79
2023/02/12 00:55:36;;;;;;;57.70;30.52;;;2.00;99.90;;;;;;5014415;28;20065;-78
2023/02/12 00:58:02;;;;;;;69.43;35.05;;;2.10;99.90;;;;;;5014533;28;20037;-79
2023/02/12 01:00:27;;;;;;;63.53;32.75;;;2.10;99.90;;;;;;4997029;28;20022;-79
2023/02/12 01:02:53;;;;;;;61.05;31.65;;;2.10;99.90;;;;;;4996779;28;20028;-79
2023/02/12 01:05:19;;;;;;;53.05;26.30;;;2.10;99.90;;;;;;4997124;28;20475;-79
2023/02/12 01:07:49;;;;;;;52.28;25.27;;;2.10;99.90;;;;;;5014374;28;20025;-79
2023/02/12 01:10:15;;;;;;;50.17;21.75;;;2.10;99.90;;;;;;4996935;28;20030;-78
2023/02/12 01:12:40;;;;;;;63.78;32.33;;;2.10;99.90;;;;;;5014594;28;20044;-79
2023/02/12 01:15:09;;;;;;;67.97;31.10;;;2.10;99.90;;;;;;5014161;28;20042;-79
2023/02/12 01:17:35;;;;;;;62.13;31.80;;;2.00;99.90;;;;;;4996883;28;20491;-79
2023/02/12 01:20:01;;;;;;;106.50;63.35;;;2.10;99.90;;;;;;5013944;28;20032;-79
2023/02/12 01:22:27;;;;;;;113.78;60.15;;;2.10;99.90;;;;;;5014032;28;20391;-79
2023/02/12 01:24:53;;;;;;;52.40;27.60;;;2.10;99.90;;;;;;4996461;28;20026;-79
2023/02/12 01:27:18;;;;;;;66.55;31.52;;;2.10;99.90;;;;;;5013959;28;20022;-79
2023/02/12 01:29:44;;;;;;;90.60;46.65;;;2.10;99.90;;;;;;5013791;28;20053;-79
2023/02/12 01:32:11;;;;;;;55.50;29.17;;;2.10;99.90;;;;;;4996438;28;20064;-79
2023/02/12 01:34:37;;;;;;;67.13;31.00;;;2.10;99.90;;;;;;4980504;28;20371;-79
2023/02/12 01:37:03;;;;;;;59.95;30.92;;;2.20;99.90;;;;;;5013965;28;20030;-79
2023/02/12 01:39:28;;;;;;;51.85;28.10;;;2.20;99.90;;;;;;5014176;28;20037;-79
2023/02/12 01:41:54;;;;;;;55.15;30.80;;;2.20;99.90;;;;;;5013784;28;20468;-79
2023/02/12 01:44:27;;;;;;;43.50;21.98;;;2.20;99.90;;;;;;4996395;28;20030;-79
2023/02/12 01:47:03;;;;;;;41.88;24.58;;;2.20;99.90;;;;;;5013815;28;20395;-78
2023/02/12 01:49:40;;;;;;;45.10;23.42;;;2.20;99.90;;;;;;4996283;28;20037;-79
2023/02/12 01:52:16;;;;;;;44.35;23.33;;;2.20;99.90;;;;;;4996214;28;20022;-79
2023/02/12 01:54:42;;;;;;;55.38;31.02;;;2.20;99.90;;;;;;4995893;28;20021;-79
2023/02/12 01:57:11;;;;;;;60.05;32.55;;;2.30;99.90;;;;;;4996034;28;20030;-78
2023/02/12 01:59:39;;;;;;;67.57;35.88;;;2.20;99.90;;;;;;5013418;28;20033;-79
2023/02/12 02:02:05;;;;;;;57.97;27.85;;;2.20;99.90;;;;;;5012841;28;20029;-79
2023/02/12 02:04:36;;;;;;;54.22;26.55;;;2.20;99.90;;;;;;5013302;28;20383;-79
2023/02/12 02:07:04;;;;;;;43.22;22.95;;;2.20;99.90;;;;;;4996277;28;20188;-79
2023/02/12 02:09:33;;;;;;;46.17;21.98;;;2.20;99.90;;;;;;5013644;28;20108;-79
2023/02/12 02:14:44;;;;;;;40.28;19.67;;;2.30;99.90;;;;;;5013351;28;20049;-79
2023/02/12 02:17:28;;;;;;;34.53;16.98;;;2.30;99.90;;;;;;5013625;28;20184;-79
2023/02/12 02:20:16;;;;;;;37.10;20.08;;;2.30;99.90;;;;;;4995812;28;20061;-79
2023/02/12 02:23:06;;;;;;;42.80;19.60;;;2.30;99.90;;;;;;4995638;28;20069;-79
2023/02/12 02:25:50;;;;;;;42.13;21.98;;;2.40;99.90;;;;;;5032933;28;20029;-79
2023/02/12 02:28:34;;;;;;;43.05;22.30;;;2.30;99.90;;;;;;5014922;28;20029;-78
2023/02/12 02:31:03;;;;;;;47.72;22.88;;;2.30;99.90;;;;;;5032937;28;20026;-79
2023/02/12 02:33:39;;;;;;;40.03;20.77;;;2.40;99.90;;;;;;5014425;28;20029;-79
2023/02/12 02:36:33;;;;;;;37.45;18.45;;;2.40;99.90;;;;;;5014984;28;20398;-79
2023/02/12 02:39:08;;;;;;;45.17;23.73;;;2.40;99.90;;;;;;5032731;28;20399;-79
2023/02/12 02:41:42;;;;;;;44.92;19.08;;;2.40;99.90;;;;;;5032910;28;20049;-78
2023/02/12 02:44:27;;;;;;;44.80;20.45;;;2.30;99.90;;;;;;5030568;28;20026;-79
2023/02/12 02:46:55;;;;;;;43.50;19.65;;;2.40;99.90;;;;;;4978379;28;20101;-79
2023/02/12 02:49:26;;;;;;;35.45;19.02;;;2.30;99.90;;;;;;4955407;28;20038;-79
2023/02/12 02:52:07;;;;;;;41.70;18.48;;;2.30;99.90;;;;;;4993884;28;20498;-79
2023/02/12 02:54:44;;;;;;;44.38;17.75;;;2.30;99.90;;;;;;4988784;28;20100;-79
2023/02/12 02:57:23;;;;;;;37.67;18.05;;;2.30;99.90;;;;;;4995627;28;20046;-78
2023/02/12 02:59:55;;;;;;;34.78;16.88;;;2.30;99.90;;;;;;5013179;28;20041;-79
2023/02/12 03:02:26;;;;;;;37.10;17.50;;;2.40;99.90;;;;;;4992947;28;20522;-79
2023/02/12 03:04:57;;;;;;;50.55;25.33;;;2.40;99.90;;;;;;4999257;28;20037;-79
2023/02/12 03:07:26;;;;;;;37.30;17.50;;;2.40;99.90;;;;;;4999265;28;20083;-79
2023/02/12 03:10:05;;;;;;;33.97;19.60;;;2.40;99.90;;;;;;4999132;28;20117;-79
2023/02/12 03:12:46;;;;;;;37.60;16.67;;;2.30;99.90;;;;;;4999138;28;20041;-80
2023/02/12 03:15:31;;;;;;;34.58;15.13;;;2.30;99.90;;;;;;4998545;28;20108;-78
2023/02/12 03:18:00;;;;;;;33.35;15.48;;;2.30;99.90;;;;;;5016603;28;20022;-79
2023/02/12 03:20:36;;;;;;;32.95;16.75;;;2.40;99.90;;;;;;5016309;28;20030;-79
2023/02/12 03:23:11;;;;;;;38.67;18.52;;;2.30;99.90;;;;;;5016243;28;20101;-79
2023/02/12 03:26:02;;;;;;;49.28;22.80;;;2.40;99.90;;;;;;4986361;28;20023;-79
2023/02/12 03:28:31;;;;;;;56.88;27.52;;;2.30;99.90;;;;;;4998796;28;20054;-79
2023/02/12 03:31:28;;;;;;;53.63;27.50;;;2.30;99.90;;;;;;4998536;28;20072;-79
2023/02/12 03:34:20;;;;;;;75.85;31.50;;;2.30;99.90;;;;;;4996420;28;20085;-79
2023/02/12 03:36:45;;;;;;;113.85;44.00;;;2.30;99.90;;;;;;4998586;28;20507;-79
2023/02/12 03:39:22;;;;;;;115.65;43.58;;;2.30;99.90;;;;;;5015890;28;20097;-79
2023/02/12 03:42:09;;;;;;;46.00;19.17;;;2.30;99.90;;;;;;5016131;28;20029;-79
2023/02/12 03:44:41;;;;;;;43.30;19.27;;;2.30;99.90;;;;;;5016208;28;20022;-79
2023/02/12 03:47:31;;;;;;;32.35;15.27;;;2.30;99.90;;;;;;4998219;28;20411;-79
2023/02/12 03:50:24;;;;;;;40.80;15.25;;;2.30;99.90;;;;;;4982762;28;20026;-79
2023/02/12 03:52:50;;;;;;;44.50;20.50;;;2.30;99.90;;;;;;5015852;28;20034;-79
2023/02/12 03:55:16;;;;;;;36.28;19.52;;;2.30;99.90;;;;;;5015952;28;20029;-79
2023/02/12 03:57:46;;;;;;;39.60;18.33;;;2.30;99.90;;;;;;5016041;28;20454;-79
2023/02/12 04:00:17;;;;;;;39.10;17.55;;;2.30;99.90;;;;;;5015488;28;20061;-78
2023/02/12 04:02:44;;;;;;;40.40;15.15;;;2.30;99.90;;;;;;4998042;28;20137;-79
2023/02/12 04:05:20;;;;;;;39.22;17.00;;;2.30;99.90;;;;;;4998141;28;20131;-79
2023/02/12 04:07:46;;;;;;;28.73;15.18;;;2.20;99.90;;;;;;5015581;28;20037;-79
2023/02/12 04:10:12;;;;;;;27.38;14.25;;;2.20;99.90;;;;;;5015344;28;20022;-79
2023/02/12 04:12:53;;;;;;;28.55;12.85;;;2.20;99.90;;;;;;4997802;28;20032;-79
2023/02/12 04:15:45;;;;;;;24.50;13.05;;;2.10;99.90;;;;;;4996410;28;20054;-78
2023/02/12 04:18:18;;;;;;;21.77;12.40;;;2.10;99.90;;;;;;4998052;28;20068;-78
2023/02/12 04:20:59;;;;;;;25.13;10.82;;;2.10;99.90;;;;;;4998022;28;20101;-79
2023/02/12 04:23:34;;;;;;;22.15;12.45;;;2.10;99.90;;;;;;4997762;28;20391;-79
2023/02/12 04:26:14;;;;;;;29.50;13.00;;;2.00;99.90;;;;;;4997529;28;20033;-79
2023/02/12 04:29:05;;;;;;;22.15;11.07;;;2.00;99.90;;;;;;5015276;28;20386;-79
2023/02/12 04:31:49;;;;;;;19.67;10.98;;;2.00;99.90;;;;;;5014991;28;20060;-79
2023/02/12 04:34:35;;;;;;;17.17;9.80;;;2.00;99.90;;;;;;5015041;28;20030;-79
2023/02/12 04:37:13;;;;;;;18.77;9.35;;;1.90;99.90;;;;;;4996814;28;20042;-78
2023/02/12 04:39:41;;;;;;;23.25;10.32;;;1.90;99.90;;;;;;4997275;28;20025;-78
2023/02/12 04:42:08;;;;;;;15.75;7.75;;;1.90;99.90;;;;;;4997610;28;20053;-79
2023/02/12 04:44:37;;;;;;;21.83;10.98;;;1.90;99.90;;;;;;5015075;28;20038;-79
2023/02/12 04:47:03;;;;;;;18.67;8.90;;;1.80;99.90;;;;;;5014966;28;20037;-78
2023/02/12 04:49:29;;;;;;;20.50;10.63;;;1.80;99.90;;;;;;4997097;28;20034;-79
2023/02/12 04:51:54;;;;;;;20.40;10.55;;;1.80;99.90;;;;;;4997356;28;20022;-79
2023/02/12 04:54:22;;;;;;;14.93;8.75;;;1.70;99.90;;;;;;4997062;28;20061;-79
2023/02/12 04:56:48;;;;;;;18.45;8.32;;;1.70;99.90;;;;;;4997298;28;20034;-79
2023/02/12 04:59:14;;;;;;;21.70;10.35;;;1.60;99.90;;;;;;5014828;28;20101;-79
2023/02/12 05:01:41;;;;;;;20.63;8.95;;;1.60;99.90;;;;;;4997121;28;20053;-78
2023/02/12 05:04:08;;;;;;;12.10;7.15;;;1.60;99.90;;;;;;5014449;28;20022;-79
2023/02/12 05:06:35;;;;;;;12.88;7.30;;;1.50;99.90;;;;;;5014327;28;20071;-79
2023/02/12 05:09:02;;;;;;;19.23;8.75;;;1.50;99.90;;;;;;5014386;28;20022;-79
2023/02/12 05:11:27;;;;;;;18.38;7.63;;;1.50;99.90;;;;;;5014207;28;20048;-79
2023/02/12 05:13:53;;;;;;;23.77;9.40;;;1.40;99.90;;;;;;4996712;28;20054;-78
2023/02/12 05:16:20;;;;;;;14.15;9.25;;;1.40;99.90;;;;;;5033839;28;20044;-79
2023/02/12 05:18:46;;;;;;;18.92;9.02;;;1.40;99.90;;;;;;5016477;28;20099;-78
2023/02/12 05:21:12;;;;;;;22.23;10.32;;;1.30;99.90;;;;;;5033761;28;20029;-78
2023/02/12 05:23:38;;;;;;;18.75;10.73;;;1.30;99.90;;;;;;5016098;28;20026;-79
2023/02/12 05:26:12;;;;;;;14.10;8.75;;;1.30;99.90;;;;;;5015881;28;20391;-79
2023/02/12 05:28:38;;;;;;;17.05;9.85;;;1.30;99.90;;;;;;5034312;28;20382;-78
2023/02/12 05:31:06;;;;;;;22.63;9.77;;;1.30;99.90;;;;;;5033486;28;20104;-79
2023/02/12 05:33:32;;;;;;;18.55;10.32;;;1.20;99.90;;;;;;5015822;28;20029;-79
2023/02/12 05:36:06;;;;;;;22.77;11.05;;;1.20;99.90;;;;;;5016171;28;20112;-79
2023/02/12 05:38:32;;;;;;;17.63;9.50;;;1.20;99.90;;;;;;5033515;28;20049;-78
2023/02/12 05:41:06;;;;;;;13.82;9.13;;;1.20;99.90;;;;;;5015597;28;20553;-79
2023/02/12 05:43:31;;;;;;;19.83;9.02;;;1.10;99.90;;;;;;5015895;28;20494;-79
2023/02/12 05:45:59;;;;;;;14.88;6.93;;;1.10;99.90;;;;;;5015747;28;20060;-79
2023/02/12 05:48:25;;;;;;;15.02;8.50;;;1.10;99.90;;;;;;5015715;28;20075;-79
2023/02/12 05:50:51;;;;;;;12.88;7.18;;;1.10;99.90;;;;;;5033104;28;20025;-79
2023/02/12 05:53:16;;;;;;;16.05;7.50;;;1.10;99.90;;;;;;5015665;28;20423;-79
2023/02/12 05:55:42;;;;;;;15.88;8.23;;;1.10;99.90;;;;;;5033275;28;20098;-79
2023/02/12 05:58:07;;;;;;;16.67;8.32;;;1.10;99.90;;;;;;5033691;28;20383;-79
2023/02/12 06:00:33;;;;;;;12.70;7.47;;;1.10;99.90;;;;;;5033307;28;20045;-79
2023/02/12 06:02:59;;;;;;;19.00;8.27;;;1.10;99.90;;;;;;5015649;28;20078;-79
2023/02/12 06:05:24;;;;;;;17.02;7.93;;;1.10;99.90;;;;;;5033030;28;20029;-79
2023/02/12 06:07:50;;;;;;;19.52;9.10;;;1.10;99.90;;;;;;5033431;28;20510;-79
2023/02/12 06:10:16;;;;;;;13.57;7.40;;;1.10;99.90;;;;;;5015474;28;20029;-79
2023/02/12 06:12:41;;;;;;;16.02;8.30;;;1.10;99.90;;;;;;5033389;28;20356;-79
2023/02/12 06:15:07;;;;;;;10.15;7.13;;;1.10;99.90;;;;;;5032941;28;20192;-79
2023/02/12 06:17:33;;;;;;;14.73;7.63;;;1.10;99.90;;;;;;5015811;28;20052;-78
2023/02/12 06:19:59;;;;;;;16.15;10.43;;;1.10;99.90;;;;;;5032866;28;20518;-78
2023/02/12 06:22:26;;;;;;;16.05;9.35;;;1.20;99.90;;;;;;5033368;28;20100;-78
2023/02/12 06:24:51;;;;;;;16.42;8.48;;;1.20;99.90;;;;;;5032829;28;20478;-78
2023/02/12 06:27:17;;;;;;;17.38;9.63;;;1.20;99.90;;;;;;5015434;28;20026;-78
2023/02/12 06:29:43;;;;;;;17.13;10.23;;;1.30;99.90;;;;;;5015369;28;20508;-78
2023/02/12 06:32:12;;;;;;;13.80;8.73;;;1.30;99.90;;;;;;5015456;28;20118;-78
2023/02/12 06:34:38;;;;;;;21.27;10.15;;;1.30;99.90;;;;;;5014074;28;20022;-78
2023/02/12 06:37:04;;;;;;;24.35;12.80;;;1.30;99.90;;;;;;5032818;28;20452;-78
2023/02/12 06:39:29;;;;;;;23.60;12.68;;;1.30;99.90;;;;;;5018964;28;20223;-79
2023/02/12 06:41:55;;;;;;;48.08;25.13;;;1.20;99.90;;;;;;5019351;28;20467;-79
2023/02/12 06:44:20;;;;;;;23.17;13.50;;;1.30;99.90;;;;;;5019039;28;20051;-79
2023/02/12 06:46:46;;;;;;;23.02;11.93;;;1.30;99.90;;;;;;5036496;28;20107;-79
2023/02/12 06:49:13;;;;;;;30.73;17.45;;;1.20;99.90;;;;;;5036659;28;20132;-79
2023/02/12 06:51:40;;;;;;;29.48;19.63;;;1.10;99.90;;;;;;5018804;28;20029;-78
2023/02/12 06:54:15;;;;;;;18.95;12.18;;;1.10;99.90;;;;;;5018840;28;20467;-79
2023/02/12 06:56:41;;;;;;;11.55;7.85;;;1.00;99.90;;;;;;5036298;28;20033;-79
2023/02/12 06:59:11;;;;;;;11.32;7.43;;;1.00;99.90;;;;;;4967040;28;20133;-79
2023/02/12 07:01:36;;;;;;;17.27;9.82;;;0.90;99.90;;;;;;4998618;28;20030;-79
2023/02/12 07:04:03;;;;;;;15.85;9.77;;;0.80;99.90;;;;;;4987232;28;20499;-78
2023/02/12 07:06:32;;;;;;;26.45;17.55;;;0.60;99.90;;;;;;4989157;28;20109;-78
2023/02/12 07:08:58;;;;;;;12.98;8.85;;;0.60;99.90;;;;;;5007491;28;20037;-79
2023/02/12 07:11:25;;;;;;;16.90;12.85;;;0.60;99.90;;;;;;4990514;28;20019;-79
2023/02/12 07:13:50;;;;;;;24.88;14.60;;;0.50;99.90;;;;;;4991845;28;20029;-79
2023/02/12 07:16:16;;;;;;;23.58;11.43;;;0.50;99.90;;;;;;4998442;28;20040;-79
2023/02/12 07:18:43;;;;;;;67.25;32.50;;;0.50;99.90;;;;;;5005208;28;20523;-78
2023/02/12 07:21:10;;;;;;;53.40;24.02;;;0.50;99.90;;;;;;4990137;28;20080;-79
2023/02/12 07:23:36;;;;;;;58.33;28.75;;;0.60;99.90;;;;;;4989371;28;20026;-79
2023/02/12 07:26:05;;;;;;;46.50;20.40;;;0.60;99.90;;;;;;5007030;28;20021;-78
2023/02/12 07:28:32;;;;;;;61.08;26.85;;;0.60;99.90;;;;;;5006250;28;20015;-78
2023/02/12 07:31:04;;;;;;;61.83;29.70;;;0.60;99.90;;;;;;5007225;28;20427;-78
2023/02/12 07:33:30;;;;;;;29.98;18.17;;;0.50;99.90;;;;;;4988405;28;20022;-79
2023/02/12 07:36:02;;;;;;;18.00;8.73;;;0.50;99.90;;;;;;4989600;28;20040;-79
2023/02/12 07:38:28;;;;;;;25.25;12.80;;;0.50;99.90;;;;;;4992164;28;20125;-79
2023/02/12 07:40:57;;;;;;;41.33;18.85;;;0.50;99.90;;;;;;4989462;28;20054;-79
2023/02/12 07:43:23;;;;;;;138.18;48.50;;;0.50;99.90;;;;;;4988082;28;20020;-79
2023/02/12 07:45:49;;;;;;;94.13;34.22;;;0.60;99.90;;;;;;4988939;28;20480;-79
2023/02/12 07:48:14;;;;;;;23.90;11.77;;;0.60;99.90;;;;;;5006668;28;20033;-81
2023/02/12 07:50:40;;;;;;;53.70;22.92;;;0.70;99.90;;;;;;4987564;28;20479;-78
2023/02/12 07:53:05;;;;;;;48.30;20.90;;;0.70;99.90;;;;;;5007098;28;20018;-79
2023/02/12 07:55:31;;;;;;;13.18;7.68;;;0.70;99.90;;;;;;5004187;28;20109;-79
2023/02/12 07:57:56;;;;;;;8.77;6.03;;;0.70;99.90;;;;;;5006978;28;20480;-79
2023/02/12 08:00:22;;;;;;;25.38;13.38;;;0.70;99.90;;;;;;5005059;28;20107;-78
2023/02/12 08:02:52;;;;;;;13.50;8.88;;;0.70;99.90;;;;;;4989082;28;20018;-79
2023/02/12 08:05:18;;;;;;;23.80;13.05;;;0.70;99.90;;;;;;5004229;28;20026;-79
2023/02/12 08:07:43;;;;;;;10.05;6.38;;;0.70;99.90;;;;;;5005389;28;20030;-79
2023/02/12 08:10:09;;;;;;;11.00;6.90;;;0.70;99.90;;;;;;4982556;28;20022;-80
2023/02/12 08:12:35;;;;;;;11.38;6.97;;;0.60;99.90;;;;;;4997879;28;20026;-80
2023/02/12 08:15:00;;;;;;;10.80;7.28;;;0.60;99.90;;;;;;4997589;28;20046;-80
2023/02/12 08:17:26;;;;;;;10.85;7.15;;;0.60;99.90;;;;;;5015135;28;20479;-80
2023/02/12 08:19:51;;;;;;;43.58;18.63;;;0.60;99.90;;;;;;4997795;28;20101;-80
2023/02/12 08:22:17;;;;;;;37.80;17.50;;;0.60;99.90;;;;;;5014280;28;20025;-80
2023/02/12 08:24:43;;;;;;;193.55;77.35;;;0.40;99.90;;;;;;5017006;28;20025;-80
2023/02/12 08:27:09;;;;;;;31.13;15.98;;;0.50;99.90;;;;;;5034771;28;20467;-80
2023/02/12 08:29:35;;;;;;;30.60;14.02;;;0.50;99.90;;;;;;5016743;28;20014;-80
2023/02/12 08:32:02;;;;;;;33.22;15.60;;;0.40;99.90;;;;;;5016847;28;20041;-80
2023/02/12 08:34:31;;;;;;;38.70;18.40;;;0.40;99.90;;;;;;5034039;28;20043;-80
2023/02/12 08:36:57;;;;;;;29.02;15.07;;;0.40;99.90;;;;;;5034294;28;20410;-80
2023/02/12 08:39:26;;;;;;;59.92;32.40;;;0.50;99.90;;;;;;5016903;28;20031;-80
2023/02/12 08:41:54;;;;;;;55.70;29.30;;;0.60;99.90;;;;;;5016864;28;20059;-80
2023/02/12 08:44:20;;;;;;;251.75;120.75;;;0.70;99.90;;;;;;5016731;28;20023;-80
2023/02/12 08:46:49;;;;;;;94.28;48.58;;;0.80;99.90;;;;;;5016835;28;20048;-80
2023/02/12 08:49:22;;;;;;;113.55;52.10;;;0.70;99.90;;;;;;5017079;28;20475;-80
2023/02/12 08:51:50;;;;;;;91.85;46.63;;;0.60;99.90;;;;;;5016726;28;20525;-80
2023/02/12 08:54:21;;;;;;;39.75;22.08;;;0.60;99.90;;;;;;5007395;28;20023;-80
2023/02/12 08:56:47;;;;;;;17.60;10.25;;;0.50;99.90;;;;;;4988393;28;20037;-80
2023/02/12 08:59:14;;;;;;;143.68;64.03;;;0.70;99.90;;;;;;4987417;28;20109;-80
2023/02/12 09:01:40;;;;;;;20.13;10.77;;;0.80;99.90;;;;;;4990096;28;20033;-80
2023/02/12 09:04:09;;;;;;;81.95;32.22;;;0.60;99.90;;;;;;5014419;28;20056;-80
2023/02/12 09:06:35;;;;;;;12.13;9.30;;;0.60;99.90;;;;;;4996681;28;20025;-80
2023/02/12 09:09:01;;;;;;;27.08;12.50;;;0.60;99.90;;;;;;4992022;28;20467;-80
2023/02/12 09:11:31;;;;;;;11.73;7.97;;;0.70;99.90;;;;;;4994686;28;20021;-80
2023/02/12 09:14:02;;;;;;;13.70;8.07;;;0.60;99.90;;;;;;5013739;28;20058;-80
2023/02/12 09:16:30;;;;;;;21.08;10.40;;;0.60;99.90;;;;;;5014104;28;20116;-80
2023/02/12 09:18:56;;;;;;;21.60;10.82;;;0.50;99.90;;;;;;4996324;28;20030;-80
2023/02/12 09:21:22;;;;;;;26.10;13.20;;;0.50;99.90;;;;;;4996430;28;20052;-80
2023/02/12 09:23:48;;;;;;;20.42;10.60;;;0.60;99.90;;;;;;5013746;28;20022;-80
2023/02/12 09:26:19;;;;;;;20.45;12.48;;;0.60;99.90;;;;;;4997105;28;20091;-81
2023/02/12 09:28:45;;;;;;;10.27;7.00;;;0.60;99.90;;;;;;4995783;28;20014;-81
2023/02/12 09:31:14;;;;;;;13.73;7.70;;;0.60;99.90;;;;;;4995672;28;20025;-80
2023/02/12 09:33:40;;;;;;;56.95;26.73;;;0.70;99.90;;;;;;5012916;28;20026;-80
2023/02/12 09:36:10;;;;;;;22.50;12.48;;;0.90;99.90;;;;;;4986566;28;20400;-80
2023/02/12 09:38:36;;;;;;;79.18;34.88;;;0.80;99.90;;;;;;5002682;28;20022;-81
2023/02/12 09:41:04;;;;;;;17.75;10.05;;;0.90;99.90;;;;;;4995749;28;20026;-81
2023/02/12 09:43:45;;;;;;;16.02;9.13;;;1.00;98.70;;;;;;5013625;28;20029;-81
2023/02/12 09:46:53;;;;;;;70.88;31.88;;;1.20;97.80;;;;;;5013498;28;20107;-81
2023/02/12 09:49:47;;;;;;;12.75;7.97;;;1.20;95.70;;;;;;5000573;28;20042;-80
2023/02/12 09:52:19;;;;;;;60.95;29.52;;;1.40;94.50;;;;;;4979689;28;20030;-80
2023/02/12 09:54:47;;;;;;;86.07;34.65;;;1.60;95.10;;;;;;5013637;28;20026;-81
2023/02/12 09:57:22;;;;;;;38.90;15.35;;;1.70;93.50;;;;;;5013262;28;20049;-81
2023/02/12 09:59:57;;;;;;;126.03;42.08;;;1.80;91.10;;;;;;4995731;28;20041;-81
2023/02/12 10:02:23;;;;;;;129.10;52.75;;;2.00;90.40;;;;;;5008532;28;20040;-81
2023/02/12 10:04:50;;;;;;;83.72;35.90;;;2.00;87.60;;;;;;5007934;28;20371;-81
2023/02/12 10:07:15;;;;;;;29.08;14.98;;;2.00;87.20;;;;;;4993587;28;20034;-80
2023/02/12 10:10:13;;;;;;;30.42;13.25;;;2.30;89.00;;;;;;4995317;28;20518;-80
2023/02/12 10:12:49;;;;;;;146.43;54.22;;;2.40;87.10;;;;;;5012516;28;20544;-81
2023/02/12 10:15:34;;;;;;;134.02;44.08;;;2.30;87.20;;;;;;4995162;28;20399;-81
2023/02/12 10:18:22;;;;;;;14.93;8.88;;;2.30;85.50;;;;;;5013368;28;20038;-81
2023/02/12 10:21:07;;;;;;;9.57;7.13;;;2.10;86.30;;;;;;4995748;28;20026;-78
2023/02/12 10:23:47;;;;;;;13.30;8.82;;;1.90;88.80;;;;;;5013207;28;20033;-78
2023/02/12 10:26:36;;;;;;;18.85;9.98;;;1.90;88.30;;;;;;5013375;28;20022;-78
2023/02/12 10:29:32;;;;;;;19.00;11.02;;;2.10;88.20;;;;;;5012811;28;20109;-78
2023/02/12 10:32:29;;;;;;;15.88;8.90;;;2.30;88.70;;;;;;4994532;28;20133;-78
2023/02/12 10:34:56;;;;;;;40.33;18.80;;;2.50;86.00;;;;;;4987850;28;20546;-78
2023/02/12 10:37:44;;;;;;;80.65;31.75;;;2.40;82.10;;;;;;5032308;28;20116;-79
2023/02/12 10:40:26;;;;;;;69.45;28.52;;;2.40;81.20;;;;;;5021632;28;20113;-79
2023/02/12 10:42:53;;;;;;;31.67;15.63;;;2.50;81.20;;;;;;5012735;28;20052;-79
2023/02/12 10:45:41;;;;;;;15.98;8.43;;;2.60;81.80;;;;;;5022199;28;20661;-79
2023/02/12 10:48:14;;;;;;;17.90;7.78;;;2.70;80.30;;;;;;5031946;28;20032;-77
2023/02/12 10:51:05;;;;;;;13.93;7.28;;;2.80;79.90;;;;;;5031620;28;20030;-78
2023/02/12 10:53:33;;;;;;;10.48;7.65;;;3.00;79.60;;;;;;5014190;28;20037;-79
2023/02/12 10:56:09;;;;;;;7.32;5.63;;;3.10;79.00;;;;;;5013978;28;20446;-78
2023/02/12 10:58:35;;;;;;;12.40;7.60;;;3.10;77.70;;;;;;4998250;28;20029;-79
2023/02/12 11:01:02;;;;;;;9.82;6.40;;;3.10;77.90;;;;;;5014815;28;20029;-79
2023/02/12 11:03:36;;;;;;;8.70;6.10;;;3.10;77.50;;;;;;5032430;28;20017;-79
2023/02/12 11:06:11;;;;;;;11.27;5.95;;;3.00;77.50;;;;;;5013605;28;20542;-79
2023/02/12 11:08:38;;;;;;;7.30;5.72;;;3.10;77.90;;;;;;5005219;28;20045;-79
2023/02/12 11:11:25;;;;;;;15.40;8.90;;;3.10;77.20;;;;;;5011523;28;20053;-79
2023/02/12 11:14:02;;;;;;;9.63;6.43;;;3.20;78.40;;;;;;4994167;28;20061;-79
2023/02/12 11:16:32;;;;;;;7.80;5.47;;;3.10;77.40;;;;;;5011202;28;20038;-79
2023/02/12 11:19:03;;;;;;;6.75;4.97;;;3.00;77.70;;;;;;5007935;28;20022;-78
2023/02/12 11:21:30;;;;;;;17.23;10.25;;;3.00;77.90;;;;;;5011797;28;20025;-78
2023/02/12 11:23:56;;;;;;;8.85;6.05;;;3.00;78.90;;;;;;5012184;28;20021;-82
2023/02/12 11:26:29;;;;;;;7.95;5.15;;;3.00;79.40;;;;;;5015392;28;20046;-79
2023/02/12 11:29:03;;;;;;;15.85;8.15;;;3.00;80.30;;;;;;5014801;28;20030;-79
2023/02/12 11:31:30;;;;;;;14.43;9.10;;;3.00;80.10;;;;;;5013206;28;20026;-79
2023/02/12 11:34:13;;;;;;;51.40;19.33;;;3.00;80.80;;;;;;5013159;28;20053;-79
2023/02/12 11:36:50;;;;;;;17.20;9.40;;;2.90;78.20;;;;;;4996708;28;20115;-79
2023/02/12 11:39:31;;;;;;;13.52;8.48;;;2.80;77.10;;;;;;5015413;28;20387;-79
2023/02/12 11:42:05;;;;;;;24.30;12.20;;;2.90;78.50;;;;;;5015115;28;20098;-79
2023/02/12 11:44:40;;;;;;;12.43;7.05;;;2.90;78.30;;;;;;5015607;28;20080;-80
2023/02/12 11:47:17;;;;;;;10.50;7.35;;;3.00;79.30;;;;;;5013900;28;20380;-80
2023/02/12 11:49:53;;;;;;;11.98;8.38;;;3.10;79.40;;;;;;4996410;28;20375;-80
2023/02/12 11:52:24;;;;;;;14.98;9.43;;;3.10;79.40;;;;;;5013934;28;20026;-79
2023/02/12 11:54:56;;;;;;;10.95;6.75;;;3.30;80.50;;;;;;5013393;28;20117;-80
2023/02/12 11:57:45;;;;;;;10.18;6.95;;;3.20;78.50;;;;;;5013503;28;20395;-80
2023/02/12 12:00:16;;;;;;;10.25;7.57;;;3.30;79.60;;;;;;5013197;28;20034;-80
2023/02/12 12:02:48;;;;;;;12.77;6.93;;;3.20;78.40;;;;;;5012202;28;20383;-80
2023/02/12 12:05:24;;;;;;;12.40;7.90;;;3.20;78.00;;;;;;5013032;28;20030;-80
2023/02/12 12:07:57;;;;;;;13.13;7.80;;;3.20;77.50;;;;;;4995138;28;20018;-80
2023/02/12 12:10:44;;;;;;;8.80;6.13;;;3.20;77.70;;;;;;5012919;28;20446;-79
2023/02/12 12:13:21;;;;;;;12.80;6.88;;;3.20;77.70;;;;;;4995518;28;20555;-79
2023/02/12 12:21:47;;;;;;;;;;;3.30;74.60;;;;;;5015402;28;20049;-80
2023/02/12 12:24:44;;;;;;;15.63;9.13;;;3.20;73.60;;;;;;5015066;28;20418;-79
2023/02/12 12:30:47;;;;;;;26.33;15.05;;;3.10;73.70;;;;;;4998037;28;20133;-79
2023/02/12 12:33:23;;;;;;;22.88;11.95;;;3.10;73.20;;;;;;5014618;28;20026;-79
2023/02/12 12:36:20;;;;;;;10.05;7.20;;;3.00;73.80;;;;;;4996068;28;20025;-80
2023/02/12 12:38:51;;;;;;;15.25;9.57;;;3.00;74.60;;;;;;4996870;28;20456;-80
2023/02/12 12:41:48;;;;;;;12.70;9.57;;;3.00;75.80;;;;;;5014288;28;20037;-80
2023/02/12 12:44:39;;;;;;;16.98;10.98;;;3.00;76.00;;;;;;5014825;28;20476;-80
2023/02/12 12:47:37;;;;;;;20.35;12.68;;;3.20;76.70;;;;;;4997103;28;20084;-80
2023/02/12 12:50:11;;;;;;;17.33;10.20;;;3.20;76.60;;;;;;4944226;28;20029;-79
2023/02/12 12:52:54;;;;;;;16.67;9.75;;;3.20;75.70;;;;;;5014562;28;20026;-80
2023/02/12 12:55:42;;;;;;;14.23;9.10;;;3.20;75.50;;;;;;5014736;28;20025;-80
2023/02/12 12:58:17;;;;;;;21.98;11.88;;;3.30;75.70;;;;;;5014775;28;20041;-80
2023/02/12 13:00:54;;;;;;;72.10;27.75;;;3.40;75.40;;;;;;5011822;28;20503;-79
2023/02/12 13:03:43;;;;;;;145.00;54.67;;;3.50;75.90;;;;;;5013286;28;20562;-79
2023/02/12 13:06:14;;;;;;;374.52;149.07;;;3.50;76.30;;;;;;5012084;28;20030;-80
2023/02/12 13:09:15;;;;;;;120.28;48.83;;;3.50;74.40;;;;;;5013417;28;20506;-80
2023/02/12 13:12:01;;;;;;;15.80;10.32;;;3.50;74.50;;;;;;5011674;28;20026;-79
2023/02/12 13:14:36;;;;;;;120.35;51.13;;;3.40;73.80;;;;;;4995197;28;20046;-79
2023/02/12 13:17:25;;;;;;;97.68;33.15;;;3.40;74.50;;;;;;5013101;28;20108;-79